createdAt,value
2022-09-12T00:00:51.067Z,100487.53
2022-09-12T00:03:18.119Z,100492.59
2022-09-12T00:05:47.041Z,100502.41
2022-09-12T00:08:15.118Z,100485.44
2022-09-12T00:10:44.077Z,100490.88
2022-09-12T00:13:12.199Z,100445.47
2022-09-12T00:15:44.310Z,100449.38
2022-09-12T00:18:15.679Z,100480.81
2022-09-12T00:20:44.997Z,100480.16
2022-09-12T00:23:12.597Z,100478.31
2022-09-12T00:25:47.012Z,100452.19
2022-09-12T00:28:16.852Z,100464.91
2022-09-12T00:30:45.562Z,100464.75
2022-09-12T00:33:14.077Z,100468.38
2022-09-12T00:35:50.202Z,100462.59
2022-09-12T00:38:17.992Z,100464.28
2022-09-12T00:40:45.117Z,100462.59
2022-09-12T00:43:33.838Z,100466.97
2022-09-12T00:46:27.483Z,100470.22
2022-09-12T00:49:04.045Z,100454.13
2022-09-12T00:51:34.604Z,100463.59
2022-09-12T00:54:06.643Z,100452.44
2022-09-12T00:56:34.883Z,100449.50
2022-09-12T00:59:25.518Z,100427.50
2022-09-12T01:01:53.217Z,100443.59
2022-09-12T01:04:23.133Z,100453.34
2022-09-12T01:06:51.333Z,100460.25
2022-09-12T01:09:22.110Z,100456.34
2022-09-12T01:11:50.843Z,100431.03
2022-09-12T01:14:19.610Z,100457.00
2022-09-12T01:16:48.962Z,100422.00
2022-09-12T01:19:26.238Z,100456.91
2022-09-12T01:22:24.237Z,100448.91
2022-09-12T01:25:16.037Z,100419.34
2022-09-12T01:27:57.231Z,100445.31
2022-09-12T01:30:43.037Z,100399.56
2022-09-12T01:33:34.357Z,100435.00
2022-09-12T01:36:10.603Z,100438.41
2022-09-12T01:38:44.978Z,100433.44
2022-09-12T01:41:26.077Z,100438.06
2022-09-12T01:44:20.357Z,100395.28
2022-09-12T01:46:56.036Z,100403.00
2022-09-12T01:49:34.402Z,100427.94
2022-09-12T01:52:13.078Z,100399.03
2022-09-12T01:54:54.051Z,100399.56
2022-09-12T01:57:48.923Z,100431.94
2022-09-12T02:00:16.765Z,100428.63
2022-09-12T02:02:50.852Z,100420.44
2022-09-12T02:05:28.398Z,100427.66
2022-09-12T02:08:17.318Z,100420.75
2022-09-12T02:10:50.932Z,100415.44
2022-09-12T02:13:24.092Z,100423.97
2022-09-12T02:15:56.283Z,100421.78
2022-09-12T02:18:28.038Z,100411.66
2022-09-12T02:20:57.286Z,100417.00
2022-09-12T02:23:29.751Z,100413.88
2022-09-12T02:26:02.255Z,100391.31
2022-09-12T02:28:34.946Z,100421.38
2022-09-12T02:31:12.529Z,100413.22
2022-09-12T02:33:59.112Z,100416.66
2022-09-12T02:37:04.438Z,100410.53
2022-09-12T02:39:32.037Z,100408.28
2022-09-12T02:42:01.292Z,100404.16
2022-09-12T02:44:31.039Z,100382.94
2022-09-12T02:47:06.249Z,100414.84
2022-09-12T02:49:33.803Z,100386.41
2022-09-12T02:52:02.839Z,100407.47
2022-09-12T02:54:31.513Z,100405.41
2022-09-12T02:56:58.510Z,100414.13
2022-09-12T02:59:26.646Z,100401.28
2022-09-12T03:02:14.718Z,100411.19
2022-09-12T03:05:00.173Z,100413.72
2022-09-12T03:07:44.878Z,100401.47
2022-09-12T03:10:36.397Z,100399.78
2022-09-12T03:13:18.526Z,100396.59
2022-09-12T03:16:03.572Z,100392.88
2022-09-12T03:18:46.550Z,100399.38
2022-09-12T03:21:25.998Z,100403.28
2022-09-12T03:24:33.255Z,100382.66
2022-09-12T03:27:13.479Z,100388.13
2022-09-12T03:29:43.038Z,100388.47
2022-09-12T03:32:09.991Z,100390.00
2022-09-12T03:34:37.018Z,100355.19
2022-09-12T03:37:04.231Z,100392.09
2022-09-12T03:39:31.602Z,100385.78
2022-09-12T03:41:58.883Z,100393.94
2022-09-12T03:44:26.157Z,100399.19
2022-09-12T03:46:53.168Z,100370.75
2022-09-12T03:49:20.111Z,100359.44
2022-09-12T03:51:47.442Z,100361.69
2022-09-12T03:54:14.492Z,100383.81
2022-09-12T03:56:41.837Z,100395.34
2022-09-12T03:59:08.918Z,100397.13
2022-09-12T04:01:35.842Z,100390.16
2022-09-12T04:04:03.111Z,100395.03
2022-09-12T04:06:36.565Z,100383.84
2022-09-12T04:09:03.572Z,100382.34
2022-09-12T04:11:32.358Z,100396.13
2022-09-12T04:13:59.372Z,100390.00
2022-09-12T04:16:26.457Z,100396.22
2022-09-12T04:18:54.478Z,100388.63
2022-09-12T04:21:24.032Z,100389.03
2022-09-12T04:23:51.122Z,100393.91
2022-09-12T04:26:19.364Z,100354.09
2022-09-12T04:28:47.141Z,100389.47
2022-09-12T04:31:22.878Z,100385.63
2022-09-12T04:33:57.292Z,100357.41
2022-09-12T04:36:25.206Z,100391.00
2022-09-12T04:38:52.605Z,100396.44
2022-09-12T04:41:24.132Z,100398.44
2022-09-12T04:44:03.679Z,100334.53
2022-09-12T04:46:41.963Z,100409.75
2022-09-12T04:49:09.111Z,100397.50
2022-09-12T04:51:37.998Z,100378.38
2022-09-12T04:54:12.911Z,100394.81
2022-09-12T04:56:45.043Z,100395.16
2022-09-12T04:59:13.878Z,100396.75
2022-09-12T05:01:43.567Z,100392.22
2022-09-12T05:04:13.244Z,100359.19
2022-09-12T05:06:41.712Z,100394.97
2022-09-12T05:09:11.854Z,100393.00
2022-09-12T05:12:03.279Z,100390.09
2022-09-12T05:14:28.854Z,100389.69
2022-09-12T05:16:59.997Z,100375.03
2022-09-12T05:19:28.564Z,100356.22
2022-09-12T05:21:55.608Z,100394.22
2022-09-12T05:24:22.558Z,100389.94
2022-09-12T05:26:49.550Z,100390.06
2022-09-12T05:29:16.958Z,100389.84
2022-09-12T05:31:43.950Z,100342.63
2022-09-12T05:34:11.488Z,100383.66
2022-09-12T05:36:39.568Z,100380.59
2022-09-12T05:39:06.554Z,100376.78
2022-09-12T05:41:34.529Z,100367.81
2022-09-12T05:44:05.151Z,100362.91
2022-09-12T05:46:40.293Z,100394.06
2022-09-12T05:49:10.234Z,100367.75
2022-09-12T05:51:42.739Z,100405.19
2022-09-12T05:54:14.363Z,100406.81
2022-09-12T05:56:44.192Z,100376.06
2022-09-12T05:59:20.435Z,100403.53
2022-09-12T06:01:48.840Z,100379.38
2022-09-12T06:04:17.842Z,100406.13
2022-09-12T06:06:45.968Z,100413.66
2022-09-12T06:09:15.239Z,100401.88
2022-09-12T06:11:42.601Z,100354.13
2022-09-12T06:14:11.926Z,100405.31
2022-09-12T06:16:39.701Z,100397.59
2022-09-12T06:19:13.198Z,100393.53
2022-09-12T06:21:40.278Z,100358.31
2022-09-12T06:24:08.609Z,100405.50
2022-09-12T06:26:36.134Z,100395.63
2022-09-12T06:29:06.243Z,100394.25
2022-09-12T06:31:38.443Z,100402.34
2022-09-12T06:34:09.350Z,100401.81
2022-09-12T06:36:42.397Z,100391.31
2022-09-12T06:39:21.364Z,100361.09
2022-09-12T06:41:50.362Z,100371.03
2022-09-12T06:44:22.643Z,100398.69
2022-09-12T06:46:50.880Z,100396.41
2022-09-12T06:49:18.038Z,100402.50
2022-09-12T06:51:45.478Z,100404.25
2022-09-12T06:54:14.766Z,100403.97
2022-09-12T06:56:45.128Z,100402.34
2022-09-12T06:59:12.457Z,100397.47
2022-09-12T07:01:40.454Z,100405.06
2022-09-12T07:04:07.731Z,100414.69
2022-09-12T07:06:41.279Z,100413.00
2022-09-12T07:09:12.562Z,100413.97
2022-09-12T07:11:43.391Z,100408.59
2022-09-12T07:14:13.158Z,100414.22
2022-09-12T07:16:40.558Z,100381.72
2022-09-12T07:19:12.404Z,100406.09
2022-09-12T07:21:42.757Z,100394.19
2022-09-12T07:24:13.359Z,100397.97
2022-09-12T07:26:42.537Z,100399.50
2022-09-12T07:32:06.100Z,100409.88
2022-09-12T07:34:33.759Z,100406.94
2022-09-12T07:37:00.718Z,100405.28
2022-09-12T07:39:27.842Z,100394.16
2022-09-12T07:41:55.230Z,100394.41
2022-09-12T07:44:23.092Z,100386.41
2022-09-12T07:46:51.402Z,100360.59
2022-09-12T07:49:18.812Z,100388.94
2022-09-12T07:51:46.157Z,100388.38
2022-09-12T07:54:13.243Z,100367.41
2022-09-12T07:56:41.471Z,100391.84
2022-09-12T07:59:09.005Z,100398.69
2022-09-12T08:01:41.834Z,100397.78
2022-09-12T08:04:10.084Z,100400.78
2022-09-12T08:06:37.242Z,100410.13
2022-09-12T08:09:11.522Z,100403.28
2022-09-12T08:11:39.763Z,100411.25
2022-09-12T08:14:06.892Z,100392.56
2022-09-12T08:16:35.933Z,100401.72
2022-09-12T08:19:04.528Z,100405.63
2022-09-12T08:21:34.293Z,100401.41
2022-09-12T08:24:06.244Z,100398.56
2022-09-12T08:26:34.482Z,100394.47
2022-09-12T08:29:02.038Z,100387.97
2022-09-12T08:31:29.550Z,100396.91
2022-09-12T08:34:00.518Z,100401.78
2022-09-12T08:36:28.612Z,100393.53
2022-09-12T08:39:07.877Z,100407.97
2022-09-12T08:41:44.612Z,100390.84
2022-09-12T08:44:44.590Z,100398.19
2022-09-12T08:47:27.092Z,100356.75
2022-09-12T08:49:59.963Z,100382.16
2022-09-12T08:52:37.810Z,100391.38
2022-09-12T08:55:07.419Z,100389.41
2022-09-12T08:57:34.738Z,100379.09
2022-09-12T09:00:06.391Z,100382.16
2022-09-12T09:02:58.660Z,100400.00
2022-09-12T09:06:22.903Z,100392.78
2022-09-12T09:09:34.367Z,100403.22
2022-09-12T09:12:18.412Z,100396.06
2022-09-12T09:15:01.399Z,100384.06
2022-09-12T09:17:42.042Z,100395.16
2022-09-12T09:20:38.212Z,100383.50
2022-09-12T09:23:28.806Z,100388.75
2022-09-12T09:26:04.411Z,100362.88
2022-09-12T09:28:45.931Z,100359.16
2022-09-12T09:31:18.319Z,100391.53
2022-09-12T09:33:51.479Z,100384.84
2022-09-12T09:38:51.207Z,100380.63
2022-09-12T09:41:31.061Z,100389.94
2022-09-12T09:43:59.420Z,100382.25
2022-09-12T09:46:30.132Z,100379.66
2022-09-12T09:48:59.727Z,100358.59
2022-09-12T09:51:35.651Z,100384.44
2022-09-12T09:54:29.326Z,100394.34
2022-09-12T09:56:56.751Z,100373.28
2022-09-12T09:59:30.639Z,100373.38
2022-09-12T10:02:24.437Z,100375.59
2022-09-12T10:05:00.229Z,100375.53
2022-09-12T10:07:28.069Z,100372.09
2022-09-12T10:10:17.448Z,100374.06
2022-09-12T10:12:45.150Z,100348.81
2022-09-12T10:15:27.385Z,100365.75
2022-09-12T10:17:59.186Z,100360.34
2022-09-12T10:20:40.275Z,100359.84
2022-09-12T10:23:19.608Z,100355.69
2022-09-12T10:25:55.170Z,100356.50
2022-09-12T10:28:33.647Z,100348.47
2022-09-12T10:31:03.039Z,100358.69
2022-09-12T10:33:32.025Z,100345.13
2022-09-12T10:36:00.885Z,100343.13
2022-09-12T10:38:32.942Z,100344.72
2022-09-12T10:41:04.316Z,100339.53
2022-09-12T10:43:37.829Z,100330.94
2022-09-12T10:46:20.343Z,100328.56
2022-09-12T10:48:49.797Z,100325.66
2022-09-12T10:51:26.888Z,100333.34
2022-09-12T10:54:00.549Z,100323.09
2022-09-12T10:56:44.672Z,100323.81
2022-09-12T10:59:39.202Z,100277.19
2022-09-12T11:02:25.098Z,100318.34
2022-09-12T11:05:02.141Z,100321.03
2022-09-12T11:08:10.958Z,100314.09
2022-09-12T11:11:07.010Z,100313.63
2022-09-12T11:13:52.807Z,100311.09
2022-09-12T11:16:46.154Z,100304.16
2022-09-12T11:19:13.430Z,100309.31
2022-09-12T11:21:59.713Z,100310.41
2022-09-12T11:24:48.369Z,100300.34
2022-09-12T11:27:18.796Z,100277.91
2022-09-12T11:29:53.391Z,100303.56
2022-09-12T11:32:39.068Z,100304.19
2022-09-12T11:35:25.283Z,100300.41
2022-09-12T11:38:31.742Z,100290.59
2022-09-12T18:01:31.823Z,100020.47
2022-09-12T18:07:14.628Z,100004.94
2022-09-12T18:09:44.675Z,100013.06
2022-09-12T18:12:15.043Z,100012.28
2022-09-12T18:14:45.364Z,100017.00
2022-09-12T18:17:18.635Z,100031.28
2022-09-12T18:19:53.514Z,99958.34
2022-09-12T18:22:29.040Z,99869.47
2022-09-12T18:25:04.808Z,100016.88
2022-09-12T20:12:17.583Z,100001.19
2022-09-12T21:20:42.811Z,99956.63
2022-09-12T23:27:32.364Z,99912.13
2022-09-12T23:30:07.186Z,99912.09
2022-09-12T23:32:39.523Z,99916.13
